sensor_id;sensor_type;location;lat;lon;timestamp;P1;durP1;ratioP1;P2;durP2;ratioP2
55833;SDS011;41761;43.004;-0.066;2022-09-09T00:01:52;1.35;;;1.33;;
55833;SDS011;41761;43.004;-0.066;2022-09-09T00:04:23;1.63;;;1.52;;
55833;SDS011;41761;43.004;-0.066;2022-09-09T00:07:10;2.35;;;1.67;;
55833;SDS011;41761;43.004;-0.066;2022-09-09T00:22:25;1.98;;;1.48;;
55833;SDS011;41761;43.004;-0.066;2022-09-09T00:25:34;1.83;;;1.48;;
55833;SDS011;41761;43.004;-0.066;2022-09-09T00:27:45;1.30;;;1.20;;
55833;SDS011;41761;43.004;-0.066;2022-09-09T00:30:19;1.42;;;1.17;;
55833;SDS011;41761;43.004;-0.066;2022-09-09T00:32:47;2.75;;;1.23;;
55833;SDS011;41761;43.004;-0.066;2022-09-09T00:35:18;2.80;;;1.60;;
55833;SDS011;41761;43.004;-0.066;2022-09-09T00:37:47;4.90;;;1.38;;
55833;SDS011;41761;43.004;-0.066;2022-09-09T00:40:28;1.52;;;1.42;;
55833;SDS011;41761;43.004;-0.066;2022-09-09T00:43:04;1.42;;;1.33;;
55833;SDS011;41761;43.004;-0.066;2022-09-09T00:45:48;1.70;;;1.60;;
55833;SDS011;41761;43.004;-0.066;2022-09-09T00:48:16;2.60;;;1.40;;
55833;SDS011;41761;43.004;-0.066;2022-09-09T00:50:53;1.40;;;1.30;;
55833;SDS011;41761;43.004;-0.066;2022-09-09T00:55:49;1.25;;;1.20;;
55833;SDS011;41761;43.004;-0.066;2022-09-09T00:58:19;1.73;;;1.42;;
55833;SDS011;41761;43.004;-0.066;2022-09-09T01:01:02;1.55;;;1.50;;
55833;SDS011;41761;43.004;-0.066;2022-09-09T01:03:34;1.38;;;1.27;;
55833;SDS011;41761;43.004;-0.066;2022-09-09T01:06:11;1.73;;;1.50;;
55833;SDS011;41761;43.004;-0.066;2022-09-09T01:11:25;2.30;;;1.35;;
55833;SDS011;41761;43.004;-0.066;2022-09-09T01:14:05;1.30;;;1.30;;
55833;SDS011;41761;43.004;-0.066;2022-09-09T01:16:35;2.00;;;1.63;;
55833;SDS011;41761;43.004;-0.066;2022-09-09T01:19:02;7.55;;;1.40;;
55833;SDS011;41761;43.004;-0.066;2022-09-09T01:21:39;1.00;;;0.98;;
55833;SDS011;41761;43.004;-0.066;2022-09-09T01:26:45;1.20;;;1.10;;
55833;SDS011;41761;43.004;-0.066;2022-09-09T01:29:12;1.27;;;1.17;;
55833;SDS011;41761;43.004;-0.066;2022-09-09T01:31:41;1.63;;;1.52;;
55833;SDS011;41761;43.004;-0.066;2022-09-09T01:34:11;1.30;;;1.20;;
55833;SDS011;41761;43.004;-0.066;2022-09-09T01:37:19;3.75;;;1.45;;
55833;SDS011;41761;43.004;-0.066;2022-09-09T01:39:26;1.27;;;1.20;;
55833;SDS011;41761;43.004;-0.066;2022-09-09T01:41:53;1.52;;;1.42;;
55833;SDS011;41761;43.004;-0.066;2022-09-09T01:44:19;1.65;;;1.15;;
55833;SDS011;41761;43.004;-0.066;2022-09-09T01:46:45;2.38;;;1.30;;
55833;SDS011;41761;43.004;-0.066;2022-09-09T01:49:11;1.67;;;1.30;;
55833;SDS011;41761;43.004;-0.066;2022-09-09T01:51:38;1.67;;;1.52;;
55833;SDS011;41761;43.004;-0.066;2022-09-09T01:54:04;3.08;;;1.70;;
55833;SDS011;41761;43.004;-0.066;2022-09-09T02:04:47;3.45;;;1.30;;
55833;SDS011;41761;43.004;-0.066;2022-09-09T02:07:56;1.58;;;1.48;;
55833;SDS011;41761;43.004;-0.066;2022-09-09T02:10:08;2.83;;;1.52;;
55833;SDS011;41761;43.004;-0.066;2022-09-09T02:12:37;1.63;;;1.48;;
55833;SDS011;41761;43.004;-0.066;2022-09-09T02:15:07;1.58;;;1.48;;
55833;SDS011;41761;43.004;-0.066;2022-09-09T02:17:36;2.00;;;1.60;;
55833;SDS011;41761;43.004;-0.066;2022-09-09T02:20:05;1.42;;;1.42;;
55833;SDS011;41761;43.004;-0.066;2022-09-09T02:22:33;1.60;;;1.50;;
55833;SDS011;41761;43.004;-0.066;2022-09-09T02:25:00;1.55;;;1.45;;
55833;SDS011;41761;43.004;-0.066;2022-09-09T02:27:26;2.35;;;1.50;;
55833;SDS011;41761;43.004;-0.066;2022-09-09T02:29:53;1.17;;;1.13;;
55833;SDS011;41761;43.004;-0.066;2022-09-09T02:32:22;1.50;;;1.40;;
55833;SDS011;41761;43.004;-0.066;2022-09-09T02:34:50;1.95;;;1.52;;
55833;SDS011;41761;43.004;-0.066;2022-09-09T02:37:20;1.83;;;1.52;;
55833;SDS011;41761;43.004;-0.066;2022-09-09T02:39:47;2.47;;;1.20;;
55833;SDS011;41761;43.004;-0.066;2022-09-09T02:42:13;2.20;;;1.38;;
55833;SDS011;41761;43.004;-0.066;2022-09-09T02:44:39;2.22;;;1.40;;
55833;SDS011;41761;43.004;-0.066;2022-09-09T02:52:15;1.27;;;1.27;;
55833;SDS011;41761;43.004;-0.066;2022-09-09T02:54:41;1.50;;;1.40;;
55833;SDS011;41761;43.004;-0.066;2022-09-09T02:59:35;4.13;;;1.52;;
55833;SDS011;41761;43.004;-0.066;2022-09-09T03:02:01;1.38;;;1.27;;
55833;SDS011;41761;43.004;-0.066;2022-09-09T03:04:27;1.45;;;1.35;;
55833;SDS011;41761;43.004;-0.066;2022-09-09T03:06:55;1.30;;;1.20;;
55833;SDS011;41761;43.004;-0.066;2022-09-09T03:09:21;1.48;;;1.38;;
55833;SDS011;41761;43.004;-0.066;2022-09-09T03:11:47;1.45;;;1.35;;
55833;SDS011;41761;43.004;-0.066;2022-09-09T03:14:14;1.50;;;1.40;;
55833;SDS011;41761;43.004;-0.066;2022-09-09T03:16:41;1.10;;;1.10;;
55833;SDS011;41761;43.004;-0.066;2022-09-09T03:19:08;1.30;;;1.13;;
55833;SDS011;41761;43.004;-0.066;2022-09-09T03:21:34;2.65;;;1.25;;
55833;SDS011;41761;43.004;-0.066;2022-09-09T03:24:00;5.05;;;1.35;;
55833;SDS011;41761;43.004;-0.066;2022-09-09T03:26:28;2.58;;;1.45;;
55833;SDS011;41761;43.004;-0.066;2022-09-09T03:28:55;1.27;;;1.27;;
55833;SDS011;41761;43.004;-0.066;2022-09-09T03:31:21;1.40;;;1.30;;
55833;SDS011;41761;43.004;-0.066;2022-09-09T03:33:47;2.13;;;1.50;;
55833;SDS011;41761;43.004;-0.066;2022-09-09T03:36:14;2.03;;;1.40;;
55833;SDS011;41761;43.004;-0.066;2022-09-09T03:38:40;1.38;;;1.27;;
55833;SDS011;41761;43.004;-0.066;2022-09-09T03:41:06;1.35;;;1.00;;
55833;SDS011;41761;43.004;-0.066;2022-09-09T03:43:33;1.60;;;1.50;;
55833;SDS011;41761;43.004;-0.066;2022-09-09T03:45:59;1.50;;;1.40;;
55833;SDS011;41761;43.004;-0.066;2022-09-09T03:48:25;1.70;;;1.60;;
55833;SDS011;41761;43.004;-0.066;2022-09-09T03:50:53;1.65;;;1.05;;
55833;SDS011;41761;43.004;-0.066;2022-09-09T03:53:21;1.45;;;1.35;;
55833;SDS011;41761;43.004;-0.066;2022-09-09T03:55:48;1.45;;;1.33;;
55833;SDS011;41761;43.004;-0.066;2022-09-09T03:58:15;1.70;;;1.60;;
55833;SDS011;41761;43.004;-0.066;2022-09-09T04:00:43;1.83;;;1.33;;
55833;SDS011;41761;43.004;-0.066;2022-09-09T04:03:18;1.45;;;1.35;;
55833;SDS011;41761;43.004;-0.066;2022-09-09T04:05:44;1.73;;;1.58;;
55833;SDS011;41761;43.004;-0.066;2022-09-09T04:08:10;1.88;;;1.40;;
55833;SDS011;41761;43.004;-0.066;2022-09-09T04:10:36;1.95;;;1.30;;
55833;SDS011;41761;43.004;-0.066;2022-09-09T04:13:03;1.55;;;1.45;;
55833;SDS011;41761;43.004;-0.066;2022-09-09T04:15:29;1.73;;;1.35;;
55833;SDS011;41761;43.004;-0.066;2022-09-09T04:17:56;2.13;;;1.30;;
55833;SDS011;41761;43.004;-0.066;2022-09-09T04:20:22;2.45;;;1.50;;
55833;SDS011;41761;43.004;-0.066;2022-09-09T04:22:48;5.82;;;1.60;;
55833;SDS011;41761;43.004;-0.066;2022-09-09T04:25:14;1.85;;;1.75;;
55833;SDS011;41761;43.004;-0.066;2022-09-09T04:27:40;3.00;;;1.20;;
55833;SDS011;41761;43.004;-0.066;2022-09-09T04:30:08;2.28;;;1.50;;
55833;SDS011;41761;43.004;-0.066;2022-09-09T04:32:34;1.45;;;1.35;;
55833;SDS011;41761;43.004;-0.066;2022-09-09T04:35:02;1.60;;;1.50;;
55833;SDS011;41761;43.004;-0.066;2022-09-09T04:37:28;1.65;;;1.55;;
55833;SDS011;41761;43.004;-0.066;2022-09-09T04:39:54;1.65;;;1.55;;
55833;SDS011;41761;43.004;-0.066;2022-09-09T04:42:20;2.25;;;1.75;;
55833;SDS011;41761;43.004;-0.066;2022-09-09T04:44:47;1.35;;;1.33;;
55833;SDS011;41761;43.004;-0.066;2022-09-09T04:47:13;1.90;;;1.30;;
55833;SDS011;41761;43.004;-0.066;2022-09-09T04:49:39;2.42;;;2.15;;
55833;SDS011;41761;43.004;-0.066;2022-09-09T04:52:06;7.57;;;1.83;;
55833;SDS011;41761;43.004;-0.066;2022-09-09T04:54:32;1.33;;;1.23;;
55833;SDS011;41761;43.004;-0.066;2022-09-09T04:56:58;1.65;;;1.50;;
55833;SDS011;41761;43.004;-0.066;2022-09-09T04:59:24;1.40;;;1.30;;
55833;SDS011;41761;43.004;-0.066;2022-09-09T05:01:50;1.80;;;1.70;;
55833;SDS011;41761;43.004;-0.066;2022-09-09T05:04:16;4.13;;;1.63;;
55833;SDS011;41761;43.004;-0.066;2022-09-09T05:06:44;2.05;;;1.73;;
55833;SDS011;41761;43.004;-0.066;2022-09-09T05:09:10;1.50;;;1.40;;
55833;SDS011;41761;43.004;-0.066;2022-09-09T05:11:37;1.73;;;1.60;;
55833;SDS011;41761;43.004;-0.066;2022-09-09T05:14:03;1.50;;;1.48;;
55833;SDS011;41761;43.004;-0.066;2022-09-09T05:16:29;2.83;;;1.52;;
55833;SDS011;41761;43.004;-0.066;2022-09-09T05:18:56;2.60;;;1.70;;
55833;SDS011;41761;43.004;-0.066;2022-09-09T05:21:22;1.63;;;1.50;;
55833;SDS011;41761;43.004;-0.066;2022-09-09T05:23:50;1.60;;;1.30;;
55833;SDS011;41761;43.004;-0.066;2022-09-09T05:26:18;1.88;;;1.70;;
55833;SDS011;41761;43.004;-0.066;2022-09-09T05:28:44;3.03;;;1.95;;
55833;SDS011;41761;43.004;-0.066;2022-09-09T05:31:13;5.85;;;1.80;;
55833;SDS011;41761;43.004;-0.066;2022-09-09T05:33:40;1.83;;;1.73;;
55833;SDS011;41761;43.004;-0.066;2022-09-09T05:36:08;1.85;;;1.75;;
55833;SDS011;41761;43.004;-0.066;2022-09-09T05:38:36;1.60;;;1.50;;
55833;SDS011;41761;43.004;-0.066;2022-09-09T05:41:03;2.00;;;1.90;;
55833;SDS011;41761;43.004;-0.066;2022-09-09T05:43:29;1.98;;;1.83;;
55833;SDS011;41761;43.004;-0.066;2022-09-09T05:48:33;1.77;;;1.67;;
55833;SDS011;41761;43.004;-0.066;2022-09-09T05:51:00;1.80;;;1.70;;
55833;SDS011;41761;43.004;-0.066;2022-09-09T05:53:27;2.53;;;2.10;;
55833;SDS011;41761;43.004;-0.066;2022-09-09T05:56:07;1.63;;;1.52;;
55833;SDS011;41761;43.004;-0.066;2022-09-09T05:58:35;1.85;;;1.70;;
55833;SDS011;41761;43.004;-0.066;2022-09-09T06:01:09;1.90;;;1.80;;
55833;SDS011;41761;43.004;-0.066;2022-09-09T06:03:35;1.73;;;1.60;;
55833;SDS011;41761;43.004;-0.066;2022-09-09T06:06:03;1.55;;;1.45;;
55833;SDS011;41761;43.004;-0.066;2022-09-09T06:08:32;2.28;;;2.08;;
55833;SDS011;41761;43.004;-0.066;2022-09-09T06:11:06;2.10;;;1.90;;
55833;SDS011;41761;43.004;-0.066;2022-09-09T06:13:32;1.75;;;1.65;;
55833;SDS011;41761;43.004;-0.066;2022-09-09T06:15:58;2.38;;;1.90;;
55833;SDS011;41761;43.004;-0.066;2022-09-09T06:18:25;2.25;;;1.90;;
55833;SDS011;41761;43.004;-0.066;2022-09-09T06:23:20;1.80;;;1.70;;
55833;SDS011;41761;43.004;-0.066;2022-09-09T06:25:46;2.38;;;2.17;;
55833;SDS011;41761;43.004;-0.066;2022-09-09T06:28:14;2.40;;;1.88;;
55833;SDS011;41761;43.004;-0.066;2022-09-09T06:30:42;2.38;;;2.17;;
55833;SDS011;41761;43.004;-0.066;2022-09-09T06:33:08;2.50;;;1.95;;
55833;SDS011;41761;43.004;-0.066;2022-09-09T06:35:34;2.35;;;2.15;;
55833;SDS011;41761;43.004;-0.066;2022-09-09T06:38:00;2.35;;;1.98;;
55833;SDS011;41761;43.004;-0.066;2022-09-09T06:40:26;3.20;;;2.20;;
55833;SDS011;41761;43.004;-0.066;2022-09-09T06:42:52;3.22;;;2.55;;
55833;SDS011;41761;43.004;-0.066;2022-09-09T06:45:19;5.03;;;2.47;;
55833;SDS011;41761;43.004;-0.066;2022-09-09T06:47:45;2.65;;;2.45;;
55833;SDS011;41761;43.004;-0.066;2022-09-09T06:50:11;3.55;;;2.50;;
55833;SDS011;41761;43.004;-0.066;2022-09-09T06:52:37;3.60;;;2.70;;
55833;SDS011;41761;43.004;-0.066;2022-09-09T06:55:03;3.35;;;2.30;;
55833;SDS011;41761;43.004;-0.066;2022-09-09T06:57:29;3.33;;;2.60;;
55833;SDS011;41761;43.004;-0.066;2022-09-09T06:59:55;3.70;;;2.47;;
55833;SDS011;41761;43.004;-0.066;2022-09-09T07:02:22;2.85;;;2.45;;
55833;SDS011;41761;43.004;-0.066;2022-09-09T07:04:48;2.85;;;2.50;;
55833;SDS011;41761;43.004;-0.066;2022-09-09T07:07:16;3.53;;;2.33;;
55833;SDS011;41761;43.004;-0.066;2022-09-09T07:09:42;4.00;;;2.78;;
55833;SDS011;41761;43.004;-0.066;2022-09-09T07:12:12;4.95;;;2.80;;
55833;SDS011;41761;43.004;-0.066;2022-09-09T07:14:38;4.68;;;2.80;;
55833;SDS011;41761;43.004;-0.066;2022-09-09T07:17:04;4.68;;;2.95;;
55833;SDS011;41761;43.004;-0.066;2022-09-09T07:19:30;7.53;;;3.72;;
55833;SDS011;41761;43.004;-0.066;2022-09-09T07:21:56;3.40;;;2.90;;
55833;SDS011;41761;43.004;-0.066;2022-09-09T07:24:22;3.92;;;3.55;;
55833;SDS011;41761;43.004;-0.066;2022-09-09T07:26:48;4.50;;;3.45;;
55833;SDS011;41761;43.004;-0.066;2022-09-09T07:29:14;4.50;;;3.90;;
55833;SDS011;41761;43.004;-0.066;2022-09-09T07:31:41;5.05;;;3.50;;
55833;SDS011;41761;43.004;-0.066;2022-09-09T07:34:07;4.60;;;3.38;;
55833;SDS011;41761;43.004;-0.066;2022-09-09T07:36:35;4.05;;;2.97;;
55833;SDS011;41761;43.004;-0.066;2022-09-09T07:39:05;4.70;;;3.15;;
55833;SDS011;41761;43.004;-0.066;2022-09-09T07:43:59;11.20;;;3.40;;
55833;SDS011;41761;43.004;-0.066;2022-09-09T07:46:26;5.18;;;3.22;;
55833;SDS011;41761;43.004;-0.066;2022-09-09T07:48:53;6.63;;;3.10;;
55833;SDS011;41761;43.004;-0.066;2022-09-09T07:51:24;10.35;;;2.80;;
55833;SDS011;41761;43.004;-0.066;2022-09-09T07:53:54;7.28;;;3.33;;
55833;SDS011;41761;43.004;-0.066;2022-09-09T07:56:22;6.30;;;2.90;;
55833;SDS011;41761;43.004;-0.066;2022-09-09T07:58:49;10.48;;;3.30;;
55833;SDS011;41761;43.004;-0.066;2022-09-09T08:03:43;6.32;;;3.13;;
55833;SDS011;41761;43.004;-0.066;2022-09-09T08:06:10;9.23;;;2.95;;
55833;SDS011;41761;43.004;-0.066;2022-09-09T08:08:37;9.02;;;2.72;;
55833;SDS011;41761;43.004;-0.066;2022-09-09T08:11:10;5.40;;;3.10;;
55833;SDS011;41761;43.004;-0.066;2022-09-09T08:13:36;9.43;;;2.90;;
55833;SDS011;41761;43.004;-0.066;2022-09-09T08:16:03;4.45;;;2.85;;
55833;SDS011;41761;43.004;-0.066;2022-09-09T08:18:29;5.38;;;2.75;;
55833;SDS011;41761;43.004;-0.066;2022-09-09T08:20:55;4.18;;;3.20;;
55833;SDS011;41761;43.004;-0.066;2022-09-09T08:23:21;8.20;;;2.75;;
55833;SDS011;41761;43.004;-0.066;2022-09-09T08:25:47;4.55;;;3.20;;
55833;SDS011;41761;43.004;-0.066;2022-09-09T08:28:15;7.05;;;2.75;;
55833;SDS011;41761;43.004;-0.066;2022-09-09T08:30:41;5.40;;;3.08;;
55833;SDS011;41761;43.004;-0.066;2022-09-09T08:33:08;4.25;;;2.50;;
55833;SDS011;41761;43.004;-0.066;2022-09-09T08:35:35;3.08;;;2.53;;
55833;SDS011;41761;43.004;-0.066;2022-09-09T08:38:01;5.53;;;2.85;;
55833;SDS011;41761;43.004;-0.066;2022-09-09T08:40:29;5.45;;;2.65;;
55833;SDS011;41761;43.004;-0.066;2022-09-09T08:42:59;4.03;;;2.40;;
55833;SDS011;41761;43.004;-0.066;2022-09-09T08:51:08;3.92;;;2.70;;
55833;SDS011;41761;43.004;-0.066;2022-09-09T08:53:38;4.30;;;2.70;;
55833;SDS011;41761;43.004;-0.066;2022-09-09T08:56:09;3.53;;;2.37;;
55833;SDS011;41761;43.004;-0.066;2022-09-09T08:58:40;4.10;;;2.60;;
55833;SDS011;41761;43.004;-0.066;2022-09-09T09:11:41;2.25;;;2.15;;
55833;SDS011;41761;43.004;-0.066;2022-09-09T09:14:11;2.22;;;1.80;;
55833;SDS011;41761;43.004;-0.066;2022-09-09T09:16:45;2.97;;;2.28;;
55833;SDS011;41761;43.004;-0.066;2022-09-09T09:19:15;1.88;;;1.70;;
55833;SDS011;41761;43.004;-0.066;2022-09-09T09:21:48;2.20;;;2.03;;
55833;SDS011;41761;43.004;-0.066;2022-09-09T09:25:17;2.65;;;1.65;;
55833;SDS011;41761;43.004;-0.066;2022-09-09T09:27:15;3.47;;;1.90;;
55833;SDS011;41761;43.004;-0.066;2022-09-09T09:29:42;3.88;;;1.85;;
55833;SDS011;41761;43.004;-0.066;2022-09-09T09:32:13;3.17;;;2.17;;
55833;SDS011;41761;43.004;-0.066;2022-09-09T09:34:41;4.97;;;1.83;;
55833;SDS011;41761;43.004;-0.066;2022-09-09T09:37:19;6.18;;;2.42;;
55833;SDS011;41761;43.004;-0.066;2022-09-09T09:39:49;2.28;;;1.85;;
55833;SDS011;41761;43.004;-0.066;2022-09-09T09:42:16;3.78;;;1.90;;
55833;SDS011;41761;43.004;-0.066;2022-09-09T09:44:43;1.77;;;1.60;;
55833;SDS011;41761;43.004;-0.066;2022-09-09T09:47:13;3.42;;;2.03;;
55833;SDS011;41761;43.004;-0.066;2022-09-09T09:49:39;5.38;;;1.60;;
55833;SDS011;41761;43.004;-0.066;2022-09-09T09:52:17;2.28;;;1.38;;
55833;SDS011;41761;43.004;-0.066;2022-09-09T09:54:46;4.82;;;1.85;;
55833;SDS011;41761;43.004;-0.066;2022-09-09T09:57:14;5.55;;;1.85;;
55833;SDS011;41761;43.004;-0.066;2022-09-09T09:59:41;3.08;;;2.13;;
55833;SDS011;41761;43.004;-0.066;2022-09-09T10:04:43;2.05;;;1.65;;
55833;SDS011;41761;43.004;-0.066;2022-09-09T10:07:13;9.00;;;2.28;;
55833;SDS011;41761;43.004;-0.066;2022-09-09T10:09:42;4.68;;;1.60;;
55833;SDS011;41761;43.004;-0.066;2022-09-09T10:19:45;5.55;;;1.83;;
55833;SDS011;41761;43.004;-0.066;2022-09-09T10:22:27;9.23;;;1.30;;
55833;SDS011;41761;43.004;-0.066;2022-09-09T10:25:11;5.50;;;1.77;;
55833;SDS011;41761;43.004;-0.066;2022-09-09T10:27:47;4.28;;;1.73;;
55833;SDS011;41761;43.004;-0.066;2022-09-09T10:30:18;3.08;;;1.73;;
55833;SDS011;41761;43.004;-0.066;2022-09-09T10:32:46;3.65;;;1.73;;
55833;SDS011;41761;43.004;-0.066;2022-09-09T10:40:32;3.30;;;1.65;;
55833;SDS011;41761;43.004;-0.066;2022-09-09T10:43:09;3.95;;;1.85;;
55833;SDS011;41761;43.004;-0.066;2022-09-09T10:48:12;7.93;;;2.00;;
55833;SDS011;41761;43.004;-0.066;2022-09-09T10:50:51;4.57;;;1.60;;
55833;SDS011;41761;43.004;-0.066;2022-09-09T10:56:09;5.00;;;1.83;;
55833;SDS011;41761;43.004;-0.066;2022-09-09T11:01:25;3.92;;;1.50;;
55833;SDS011;41761;43.004;-0.066;2022-09-09T11:03:55;2.92;;;1.52;;
55833;SDS011;41761;43.004;-0.066;2022-09-09T11:06:23;6.50;;;2.28;;
55833;SDS011;41761;43.004;-0.066;2022-09-09T11:08:53;6.68;;;1.52;;
55833;SDS011;41761;43.004;-0.066;2022-09-09T11:19:14;10.82;;;2.03;;
55833;SDS011;41761;43.004;-0.066;2022-09-09T11:21:44;6.45;;;1.70;;
55833;SDS011;41761;43.004;-0.066;2022-09-09T11:24:13;3.97;;;1.70;;
55833;SDS011;41761;43.004;-0.066;2022-09-09T11:26:46;6.25;;;2.00;;
55833;SDS011;41761;43.004;-0.066;2022-09-09T11:30:02;9.05;;;2.22;;
55833;SDS011;41761;43.004;-0.066;2022-09-09T11:32:20;8.88;;;2.05;;
55833;SDS011;41761;43.004;-0.066;2022-09-09T11:34:59;4.93;;;1.67;;
55833;SDS011;41761;43.004;-0.066;2022-09-09T11:40:23;3.63;;;2.08;;
55833;SDS011;41761;43.004;-0.066;2022-09-09T11:43:00;9.13;;;1.60;;
55833;SDS011;41761;43.004;-0.066;2022-09-09T11:45:28;5.28;;;1.85;;
55833;SDS011;41761;43.004;-0.066;2022-09-09T11:47:58;3.03;;;1.73;;
55833;SDS011;41761;43.004;-0.066;2022-09-09T11:52:50;8.25;;;2.10;;
55833;SDS011;41761;43.004;-0.066;2022-09-09T11:57:57;5.60;;;1.63;;
55833;SDS011;41761;43.004;-0.066;2022-09-09T12:03:08;3.92;;;1.40;;
55833;SDS011;41761;43.004;-0.066;2022-09-09T12:05:52;6.22;;;1.63;;
55833;SDS011;41761;43.004;-0.066;2022-09-09T12:08:21;4.55;;;1.60;;
55833;SDS011;41761;43.004;-0.066;2022-09-09T12:10:54;2.95;;;1.65;;
55833;SDS011;41761;43.004;-0.066;2022-09-09T12:13:22;4.40;;;1.85;;
55833;SDS011;41761;43.004;-0.066;2022-09-09T12:18:15;8.57;;;1.65;;
55833;SDS011;41761;43.004;-0.066;2022-09-09T12:23:47;4.25;;;1.75;;
55833;SDS011;41761;43.004;-0.066;2022-09-09T12:26:20;3.40;;;1.70;;
55833;SDS011;41761;43.004;-0.066;2022-09-09T12:33:43;3.58;;;1.58;;
55833;SDS011;41761;43.004;-0.066;2022-09-09T12:36:15;5.95;;;1.95;;
55833;SDS011;41761;43.004;-0.066;2022-09-09T12:38:43;7.60;;;1.85;;
55833;SDS011;41761;43.004;-0.066;2022-09-09T12:41:50;4.90;;;1.80;;
55833;SDS011;41761;43.004;-0.066;2022-09-09T12:44:05;2.63;;;1.50;;
55833;SDS011;41761;43.004;-0.066;2022-09-09T12:46:44;2.72;;;1.55;;
55833;SDS011;41761;43.004;-0.066;2022-09-09T12:51:52;3.92;;;1.52;;
55833;SDS011;41761;43.004;-0.066;2022-09-09T12:54:18;3.85;;;1.85;;
55833;SDS011;41761;43.004;-0.066;2022-09-09T12:56:45;3.58;;;1.80;;
55833;SDS011;41761;43.004;-0.066;2022-09-09T12:59:23;3.35;;;1.60;;
55833;SDS011;41761;43.004;-0.066;2022-09-09T13:01:56;3.75;;;1.52;;
55833;SDS011;41761;43.004;-0.066;2022-09-09T13:04:24;5.85;;;1.85;;
55833;SDS011;41761;43.004;-0.066;2022-09-09T13:06:51;4.03;;;1.70;;
55833;SDS011;41761;43.004;-0.066;2022-09-09T13:09:20;3.95;;;1.80;;
55833;SDS011;41761;43.004;-0.066;2022-09-09T13:11:50;5.47;;;1.60;;
55833;SDS011;41761;43.004;-0.066;2022-09-09T13:14:23;3.58;;;1.75;;
55833;SDS011;41761;43.004;-0.066;2022-09-09T13:16:56;3.78;;;1.80;;
55833;SDS011;41761;43.004;-0.066;2022-09-09T13:19:22;4.95;;;1.85;;
55833;SDS011;41761;43.004;-0.066;2022-09-09T13:21:52;4.57;;;1.60;;
55833;SDS011;41761;43.004;-0.066;2022-09-09T13:24:29;3.67;;;1.52;;
55833;SDS011;41761;43.004;-0.066;2022-09-09T13:27:03;6.18;;;1.92;;
55833;SDS011;41761;43.004;-0.066;2022-09-09T13:29:30;5.60;;;1.33;;
55833;SDS011;41761;43.004;-0.066;2022-09-09T13:32:06;4.25;;;1.90;;
55833;SDS011;41761;43.004;-0.066;2022-09-09T13:34:34;8.10;;;1.45;;
55833;SDS011;41761;43.004;-0.066;2022-09-09T13:37:04;3.40;;;1.70;;
55833;SDS011;41761;43.004;-0.066;2022-09-09T13:39:32;8.45;;;1.90;;
55833;SDS011;41761;43.004;-0.066;2022-09-09T13:41:59;6.03;;;1.80;;
55833;SDS011;41761;43.004;-0.066;2022-09-09T13:44:30;5.82;;;2.15;;
55833;SDS011;41761;43.004;-0.066;2022-09-09T13:47:01;7.75;;;1.65;;
55833;SDS011;41761;43.004;-0.066;2022-09-09T13:49:28;2.42;;;1.40;;
55833;SDS011;41761;43.004;-0.066;2022-09-09T13:52:05;7.00;;;1.73;;
55833;SDS011;41761;43.004;-0.066;2022-09-09T13:54:32;7.03;;;1.48;;
55833;SDS011;41761;43.004;-0.066;2022-09-09T13:56:58;5.70;;;1.65;;
55833;SDS011;41761;43.004;-0.066;2022-09-09T13:59:26;3.78;;;1.40;;
55833;SDS011;41761;43.004;-0.066;2022-09-09T14:01:52;7.00;;;1.52;;
55833;SDS011;41761;43.004;-0.066;2022-09-09T14:04:18;2.92;;;1.50;;
55833;SDS011;41761;43.004;-0.066;2022-09-09T14:06:48;1.58;;;1.20;;
55833;SDS011;41761;43.004;-0.066;2022-09-09T14:09:16;4.10;;;1.70;;
55833;SDS011;41761;43.004;-0.066;2022-09-09T14:11:43;5.30;;;1.80;;
55833;SDS011;41761;43.004;-0.066;2022-09-09T14:14:10;2.60;;;1.63;;
55833;SDS011;41761;43.004;-0.066;2022-09-09T14:16:36;2.75;;;1.40;;
55833;SDS011;41761;43.004;-0.066;2022-09-09T14:19:02;2.22;;;1.25;;
55833;SDS011;41761;43.004;-0.066;2022-09-09T14:21:29;4.28;;;1.58;;
55833;SDS011;41761;43.004;-0.066;2022-09-09T14:23:55;4.38;;;2.15;;
55833;SDS011;41761;43.004;-0.066;2022-09-09T14:26:23;4.10;;;1.73;;
55833;SDS011;41761;43.004;-0.066;2022-09-09T14:28:49;4.03;;;1.73;;
55833;SDS011;41761;43.004;-0.066;2022-09-09T14:31:16;2.05;;;1.42;;
55833;SDS011;41761;43.004;-0.066;2022-09-09T14:33:43;5.65;;;1.67;;
55833;SDS011;41761;43.004;-0.066;2022-09-09T14:36:09;6.22;;;1.92;;
55833;SDS011;41761;43.004;-0.066;2022-09-09T14:38:37;4.97;;;1.33;;
55833;SDS011;41761;43.004;-0.066;2022-09-09T14:41:07;2.20;;;1.38;;
55833;SDS011;41761;43.004;-0.066;2022-09-09T14:43:34;5.53;;;1.30;;
55833;SDS011;41761;43.004;-0.066;2022-09-09T14:46:04;1.60;;;1.50;;
55833;SDS011;41761;43.004;-0.066;2022-09-09T14:48:31;3.75;;;1.52;;
55833;SDS011;41761;43.004;-0.066;2022-09-09T14:51:03;2.67;;;1.60;;
55833;SDS011;41761;43.004;-0.066;2022-09-09T14:53:30;11.32;;;1.90;;
55833;SDS011;41761;43.004;-0.066;2022-09-09T14:56:02;8.88;;;1.60;;
55833;SDS011;41761;43.004;-0.066;2022-09-09T14:58:30;3.05;;;1.63;;
55833;SDS011;41761;43.004;-0.066;2022-09-09T15:01:01;3.53;;;1.83;;
55833;SDS011;41761;43.004;-0.066;2022-09-09T15:03:27;3.90;;;1.52;;
55833;SDS011;41761;43.004;-0.066;2022-09-09T15:05:53;1.90;;;1.20;;
55833;SDS011;41761;43.004;-0.066;2022-09-09T15:08:19;14.35;;;1.95;;
55833;SDS011;41761;43.004;-0.066;2022-09-09T15:10:45;7.32;;;1.70;;
55833;SDS011;41761;43.004;-0.066;2022-09-09T15:13:14;5.22;;;1.85;;
55833;SDS011;41761;43.004;-0.066;2022-09-09T15:15:41;4.57;;;1.60;;
55833;SDS011;41761;43.004;-0.066;2022-09-09T15:18:08;2.88;;;1.50;;
55833;SDS011;41761;43.004;-0.066;2022-09-09T15:20:34;4.35;;;2.05;;
55833;SDS011;41761;43.004;-0.066;2022-09-09T15:23:02;6.20;;;1.85;;
55833;SDS011;41761;43.004;-0.066;2022-09-09T15:25:28;3.92;;;1.70;;
55833;SDS011;41761;43.004;-0.066;2022-09-09T15:27:54;5.45;;;1.60;;
55833;SDS011;41761;43.004;-0.066;2022-09-09T15:30:21;2.38;;;1.73;;
55833;SDS011;41761;43.004;-0.066;2022-09-09T15:32:47;6.50;;;1.88;;
55833;SDS011;41761;43.004;-0.066;2022-09-09T15:35:13;4.15;;;1.75;;
55833;SDS011;41761;43.004;-0.066;2022-09-09T15:37:40;8.75;;;2.42;;
55833;SDS011;41761;43.004;-0.066;2022-09-09T15:40:06;7.03;;;1.92;;
55833;SDS011;41761;43.004;-0.066;2022-09-09T15:42:32;8.00;;;1.75;;
55833;SDS011;41761;43.004;-0.066;2022-09-09T15:44:58;10.80;;;1.60;;
55833;SDS011;41761;43.004;-0.066;2022-09-09T15:47:25;3.70;;;1.35;;
55833;SDS011;41761;43.004;-0.066;2022-09-09T15:49:51;3.53;;;1.92;;
55833;SDS011;41761;43.004;-0.066;2022-09-09T15:52:18;4.45;;;1.70;;
55833;SDS011;41761;43.004;-0.066;2022-09-09T15:54:44;4.30;;;1.58;;
55833;SDS011;41761;43.004;-0.066;2022-09-09T15:57:11;2.08;;;1.50;;
55833;SDS011;41761;43.004;-0.066;2022-09-09T15:59:38;4.38;;;1.55;;
55833;SDS011;41761;43.004;-0.066;2022-09-09T16:02:05;3.33;;;1.25;;
55833;SDS011;41761;43.004;-0.066;2022-09-09T16:04:31;5.60;;;1.73;;
55833;SDS011;41761;43.004;-0.066;2022-09-09T16:07:00;2.45;;;1.23;;
55833;SDS011;41761;43.004;-0.066;2022-09-09T16:09:26;3.92;;;1.58;;
55833;SDS011;41761;43.004;-0.066;2022-09-09T16:11:55;4.28;;;1.70;;
55833;SDS011;41761;43.004;-0.066;2022-09-09T16:14:21;4.07;;;1.60;;
55833;SDS011;41761;43.004;-0.066;2022-09-09T16:16:48;5.70;;;1.15;;
55833;SDS011;41761;43.004;-0.066;2022-09-09T16:19:14;5.15;;;1.60;;
55833;SDS011;41761;43.004;-0.066;2022-09-09T16:21:41;4.32;;;1.30;;
55833;SDS011;41761;43.004;-0.066;2022-09-09T16:24:08;5.00;;;1.50;;
55833;SDS011;41761;43.004;-0.066;2022-09-09T16:26:35;4.07;;;1.45;;
55833;SDS011;41761;43.004;-0.066;2022-09-09T16:29:02;2.10;;;1.15;;
55833;SDS011;41761;43.004;-0.066;2022-09-09T16:31:28;2.55;;;1.48;;
55833;SDS011;41761;43.004;-0.066;2022-09-09T16:33:56;2.58;;;1.50;;
55833;SDS011;41761;43.004;-0.066;2022-09-09T16:36:25;3.88;;;1.40;;
55833;SDS011;41761;43.004;-0.066;2022-09-09T16:38:52;3.25;;;1.60;;
55833;SDS011;41761;43.004;-0.066;2022-09-09T16:41:22;4.95;;;1.83;;